sensor_id;sensor_type;location;lat;lon;timestamp;temperature;humidity
17172;DHT22;8701;50.150;8.756;2023-02-01T00:02:45;5.90;99.90
17172;DHT22;8701;50.150;8.756;2023-02-01T00:06:48;5.90;99.90
17172;DHT22;8701;50.150;8.756;2023-02-01T00:10:58;5.90;99.90
17172;DHT22;8701;50.150;8.756;2023-02-01T00:15:00;5.90;99.90
17172;DHT22;8701;50.150;8.756;2023-02-01T00:19:05;6.00;99.90
17172;DHT22;8701;50.150;8.756;2023-02-01T00:23:09;6.00;99.90
17172;DHT22;8701;50.150;8.756;2023-02-01T00:27:12;6.00;99.90
17172;DHT22;8701;50.150;8.756;2023-02-01T00:31:18;6.00;99.90
17172;DHT22;8701;50.150;8.756;2023-02-01T00:35:20;6.00;99.90
17172;DHT22;8701;50.150;8.756;2023-02-01T00:39:24;6.00;99.90
17172;DHT22;8701;50.150;8.756;2023-02-01T00:43:26;6.00;99.90
17172;DHT22;8701;50.150;8.756;2023-02-01T00:47:28;6.10;99.90
17172;DHT22;8701;50.150;8.756;2023-02-01T00:51:31;6.10;99.90
17172;DHT22;8701;50.150;8.756;2023-02-01T00:55:36;6.10;99.90
17172;DHT22;8701;50.150;8.756;2023-02-01T00:59:39;6.10;99.90
17172;DHT22;8701;50.150;8.756;2023-02-01T01:03:43;6.10;99.90
17172;DHT22;8701;50.150;8.756;2023-02-01T01:07:46;6.10;99.90
17172;DHT22;8701;50.150;8.756;2023-02-01T01:11:50;6.10;99.90
17172;DHT22;8701;50.150;8.756;2023-02-01T01:15:54;6.10;99.90
17172;DHT22;8701;50.150;8.756;2023-02-01T01:19:56;6.10;99.90
17172;DHT22;8701;50.150;8.756;2023-02-01T01:23:59;6.10;99.90
17172;DHT22;8701;50.150;8.756;2023-02-01T01:28:02;6.10;99.90
17172;DHT22;8701;50.150;8.756;2023-02-01T01:32:05;6.10;99.90
17172;DHT22;8701;50.150;8.756;2023-02-01T01:36:08;6.10;99.90
17172;DHT22;8701;50.150;8.756;2023-02-01T01:40:12;6.20;99.90
17172;DHT22;8701;50.150;8.756;2023-02-01T01:49:07;6.10;99.90
17172;DHT22;8701;50.150;8.756;2023-02-01T01:53:16;6.20;99.90
17172;DHT22;8701;50.150;8.756;2023-02-01T01:57:22;6.20;99.90
17172;DHT22;8701;50.150;8.756;2023-02-01T02:01:26;6.20;99.90
17172;DHT22;8701;50.150;8.756;2023-02-01T02:05:30;6.20;99.90
17172;DHT22;8701;50.150;8.756;2023-02-01T02:09:32;6.20;99.90
17172;DHT22;8701;50.150;8.756;2023-02-01T02:13:37;6.20;99.90
17172;DHT22;8701;50.150;8.756;2023-02-01T02:17:44;6.20;99.90
17172;DHT22;8701;50.150;8.756;2023-02-01T02:22:13;6.10;99.90
17172;DHT22;8701;50.150;8.756;2023-02-01T02:26:38;6.20;99.90
17172;DHT22;8701;50.150;8.756;2023-02-01T02:30:55;6.10;99.90
17172;DHT22;8701;50.150;8.756;2023-02-01T02:35:08;6.20;99.90
17172;DHT22;8701;50.150;8.756;2023-02-01T02:39:21;6.20;99.90
17172;DHT22;8701;50.150;8.756;2023-02-01T02:43:31;6.10;99.90
17172;DHT22;8701;50.150;8.756;2023-02-01T02:47:57;6.10;99.90
17172;DHT22;8701;50.150;8.756;2023-02-01T02:52:16;6.10;99.90
17172;DHT22;8701;50.150;8.756;2023-02-01T02:56:39;6.10;99.90
17172;DHT22;8701;50.150;8.756;2023-02-01T03:00:59;6.10;99.90
17172;DHT22;8701;50.150;8.756;2023-02-01T03:05:20;6.10;99.90
17172;DHT22;8701;50.150;8.756;2023-02-01T03:09:28;6.10;99.90
17172;DHT22;8701;50.150;8.756;2023-02-01T03:13:40;6.00;99.90
17172;DHT22;8701;50.150;8.756;2023-02-01T03:17:45;6.00;99.90
17172;DHT22;8701;50.150;8.756;2023-02-01T03:21:51;6.00;99.90
17172;DHT22;8701;50.150;8.756;2023-02-01T03:25:58;6.00;99.90
17172;DHT22;8701;50.150;8.756;2023-02-01T03:30:06;6.00;99.90
17172;DHT22;8701;50.150;8.756;2023-02-01T03:34:10;6.10;99.90
17172;DHT22;8701;50.150;8.756;2023-02-01T03:38:21;6.10;99.90
17172;DHT22;8701;50.150;8.756;2023-02-01T03:42:28;6.00;99.90
17172;DHT22;8701;50.150;8.756;2023-02-01T03:46:35;6.10;99.90
17172;DHT22;8701;50.150;8.756;2023-02-01T03:50:43;6.00;99.90
17172;DHT22;8701;50.150;8.756;2023-02-01T03:54:48;6.00;99.90
17172;DHT22;8701;50.150;8.756;2023-02-01T03:58:52;6.00;99.90
17172;DHT22;8701;50.150;8.756;2023-02-01T04:03:06;6.00;99.90
17172;DHT22;8701;50.150;8.756;2023-02-01T04:07:09;6.00;99.90
17172;DHT22;8701;50.150;8.756;2023-02-01T04:11:13;6.00;99.90
17172;DHT22;8701;50.150;8.756;2023-02-01T04:15:17;6.10;99.90
17172;DHT22;8701;50.150;8.756;2023-02-01T04:19:19;6.10;99.90
17172;DHT22;8701;50.150;8.756;2023-02-01T04:23:21;6.10;99.90
17172;DHT22;8701;50.150;8.756;2023-02-01T04:27:23;6.10;99.90
17172;DHT22;8701;50.150;8.756;2023-02-01T04:31:28;6.10;99.90
17172;DHT22;8701;50.150;8.756;2023-02-01T04:35:30;6.10;99.90
17172;DHT22;8701;50.150;8.756;2023-02-01T04:39:32;6.10;99.90
17172;DHT22;8701;50.150;8.756;2023-02-01T04:43:35;6.20;99.90
17172;DHT22;8701;50.150;8.756;2023-02-01T04:47:38;6.20;99.90
17172;DHT22;8701;50.150;8.756;2023-02-01T04:51:42;6.10;99.90
17172;DHT22;8701;50.150;8.756;2023-02-01T04:55:47;6.20;99.90
17172;DHT22;8701;50.150;8.756;2023-02-01T04:59:50;6.10;99.90
17172;DHT22;8701;50.150;8.756;2023-02-01T05:03:53;6.20;99.90
17172;DHT22;8701;50.150;8.756;2023-02-01T05:07:55;6.20;99.90
17172;DHT22;8701;50.150;8.756;2023-02-01T05:11:58;6.20;99.90
17172;DHT22;8701;50.150;8.756;2023-02-01T05:16:17;6.20;99.90
17172;DHT22;8701;50.150;8.756;2023-02-01T05:20:21;6.20;99.90
17172;DHT22;8701;50.150;8.756;2023-02-01T05:24:23;6.20;99.90
17172;DHT22;8701;50.150;8.756;2023-02-01T05:28:28;6.20;99.90
17172;DHT22;8701;50.150;8.756;2023-02-01T05:32:33;6.20;99.90
17172;DHT22;8701;50.150;8.756;2023-02-01T05:36:37;6.20;99.90
17172;DHT22;8701;50.150;8.756;2023-02-01T05:40:39;6.20;99.90
17172;DHT22;8701;50.150;8.756;2023-02-01T05:44:41;6.10;99.90
17172;DHT22;8701;50.150;8.756;2023-02-01T05:48:44;6.10;99.90
17172;DHT22;8701;50.150;8.756;2023-02-01T05:52:48;6.10;99.90
17172;DHT22;8701;50.150;8.756;2023-02-01T05:56:50;6.10;99.90
17172;DHT22;8701;50.150;8.756;2023-02-01T06:00:52;6.10;99.90
17172;DHT22;8701;50.150;8.756;2023-02-01T06:04:54;6.00;99.90
17172;DHT22;8701;50.150;8.756;2023-02-01T06:09:05;5.90;99.90
17172;DHT22;8701;50.150;8.756;2023-02-01T06:13:07;5.80;99.90
17172;DHT22;8701;50.150;8.756;2023-02-01T06:17:09;5.70;99.90
17172;DHT22;8701;50.150;8.756;2023-02-01T06:21:12;5.70;99.90
17172;DHT22;8701;50.150;8.756;2023-02-01T06:25:18;5.70;99.90
17172;DHT22;8701;50.150;8.756;2023-02-01T06:29:21;5.60;99.90
17172;DHT22;8701;50.150;8.756;2023-02-01T06:33:24;5.60;99.90
17172;DHT22;8701;50.150;8.756;2023-02-01T06:37:26;5.60;99.90
17172;DHT22;8701;50.150;8.756;2023-02-01T06:41:31;5.60;99.90
17172;DHT22;8701;50.150;8.756;2023-02-01T06:45:35;5.60;99.90
17172;DHT22;8701;50.150;8.756;2023-02-01T06:49:37;5.60;99.90
17172;DHT22;8701;50.150;8.756;2023-02-01T06:53:41;5.60;99.90
17172;DHT22;8701;50.150;8.756;2023-02-01T06:57:45;5.50;99.90
17172;DHT22;8701;50.150;8.756;2023-02-01T07:01:48;5.50;99.90
17172;DHT22;8701;50.150;8.756;2023-02-01T07:05:55;5.40;99.90
17172;DHT22;8701;50.150;8.756;2023-02-01T07:10:01;5.40;99.90
17172;DHT22;8701;50.150;8.756;2023-02-01T07:14:05;5.30;99.90
17172;DHT22;8701;50.150;8.756;2023-02-01T07:18:07;5.40;99.90
17172;DHT22;8701;50.150;8.756;2023-02-01T07:22:09;5.40;99.90
17172;DHT22;8701;50.150;8.756;2023-02-01T07:26:13;5.50;99.90
17172;DHT22;8701;50.150;8.756;2023-02-01T07:30:17;5.50;99.90
17172;DHT22;8701;50.150;8.756;2023-02-01T07:34:20;5.60;99.90
17172;DHT22;8701;50.150;8.756;2023-02-01T07:38:22;5.70;99.90
17172;DHT22;8701;50.150;8.756;2023-02-01T07:42:25;5.80;99.90
17172;DHT22;8701;50.150;8.756;2023-02-01T07:46:29;5.80;99.90
17172;DHT22;8701;50.150;8.756;2023-02-01T07:50:32;5.90;99.90
17172;DHT22;8701;50.150;8.756;2023-02-01T07:54:36;6.00;99.90
17172;DHT22;8701;50.150;8.756;2023-02-01T07:58:47;6.00;99.90
17172;DHT22;8701;50.150;8.756;2023-02-01T08:02:51;6.10;99.90
17172;DHT22;8701;50.150;8.756;2023-02-01T08:06:53;6.20;99.90
17172;DHT22;8701;50.150;8.756;2023-02-01T08:11:00;6.20;99.90
17172;DHT22;8701;50.150;8.756;2023-02-01T08:15:04;6.20;99.90
17172;DHT22;8701;50.150;8.756;2023-02-01T08:19:09;6.20;99.90
17172;DHT22;8701;50.150;8.756;2023-02-01T08:23:18;6.20;99.90
17172;DHT22;8701;50.150;8.756;2023-02-01T08:27:20;6.30;99.90
17172;DHT22;8701;50.150;8.756;2023-02-01T08:31:24;6.30;99.90
17172;DHT22;8701;50.150;8.756;2023-02-01T08:35:28;6.30;99.90
17172;DHT22;8701;50.150;8.756;2023-02-01T08:39:31;6.40;99.90
17172;DHT22;8701;50.150;8.756;2023-02-01T08:43:33;6.40;99.90
17172;DHT22;8701;50.150;8.756;2023-02-01T08:47:39;6.40;99.90
17172;DHT22;8701;50.150;8.756;2023-02-01T08:51:43;6.40;99.90
17172;DHT22;8701;50.150;8.756;2023-02-01T08:55:45;6.40;99.90
17172;DHT22;8701;50.150;8.756;2023-02-01T08:59:48;6.40;99.90
17172;DHT22;8701;50.150;8.756;2023-02-01T09:03:54;6.50;99.90
17172;DHT22;8701;50.150;8.756;2023-02-01T09:07:58;6.50;99.90
17172;DHT22;8701;50.150;8.756;2023-02-01T09:12:01;6.50;99.90
17172;DHT22;8701;50.150;8.756;2023-02-01T09:16:04;6.50;99.90
17172;DHT22;8701;50.150;8.756;2023-02-01T09:20:30;6.50;99.90
17172;DHT22;8701;50.150;8.756;2023-02-01T09:24:34;6.50;99.90
17172;DHT22;8701;50.150;8.756;2023-02-01T09:28:36;6.60;99.90
17172;DHT22;8701;50.150;8.756;2023-02-01T09:32:38;6.60;99.90
17172;DHT22;8701;50.150;8.756;2023-02-01T09:36:41;6.60;99.90
17172;DHT22;8701;50.150;8.756;2023-02-01T09:40:46;6.60;99.90
17172;DHT22;8701;50.150;8.756;2023-02-01T09:44:58;6.60;99.90
17172;DHT22;8701;50.150;8.756;2023-02-01T09:49:08;6.70;99.90
17172;DHT22;8701;50.150;8.756;2023-02-01T09:53:17;6.70;99.90
17172;DHT22;8701;50.150;8.756;2023-02-01T09:57:24;6.70;99.90
17172;DHT22;8701;50.150;8.756;2023-02-01T10:01:28;6.90;99.90
17172;DHT22;8701;50.150;8.756;2023-02-01T10:05:43;6.80;99.90
17172;DHT22;8701;50.150;8.756;2023-02-01T10:09:56;6.80;99.90
17172;DHT22;8701;50.150;8.756;2023-02-01T10:14:08;6.80;99.90
17172;DHT22;8701;50.150;8.756;2023-02-01T10:18:27;6.80;99.90
17172;DHT22;8701;50.150;8.756;2023-02-01T10:22:40;6.80;99.90
17172;DHT22;8701;50.150;8.756;2023-02-01T10:26:45;6.90;99.90
17172;DHT22;8701;50.150;8.756;2023-02-01T10:30:49;6.90;99.90
17172;DHT22;8701;50.150;8.756;2023-02-01T10:34:57;6.90;99.90
17172;DHT22;8701;50.150;8.756;2023-02-01T10:39:00;7.00;99.90
17172;DHT22;8701;50.150;8.756;2023-02-01T10:43:03;7.00;99.90
17172;DHT22;8701;50.150;8.756;2023-02-01T10:47:08;7.00;99.90
17172;DHT22;8701;50.150;8.756;2023-02-01T10:51:16;7.00;99.90
17172;DHT22;8701;50.150;8.756;2023-02-01T10:55:38;7.00;99.90
17172;DHT22;8701;50.150;8.756;2023-02-01T10:59:41;7.10;99.90
17172;DHT22;8701;50.150;8.756;2023-02-01T11:03:52;7.10;99.90
17172;DHT22;8701;50.150;8.756;2023-02-01T11:07:55;7.10;99.90
17172;DHT22;8701;50.150;8.756;2023-02-01T11:12:00;7.10;99.90
17172;DHT22;8701;50.150;8.756;2023-02-01T11:16:04;7.10;99.90
17172;DHT22;8701;50.150;8.756;2023-02-01T11:20:15;7.10;99.90
17172;DHT22;8701;50.150;8.756;2023-02-01T11:24:21;7.10;99.90
17172;DHT22;8701;50.150;8.756;2023-02-01T11:28:26;7.00;99.90
17172;DHT22;8701;50.150;8.756;2023-02-01T11:32:30;7.00;99.90
17172;DHT22;8701;50.150;8.756;2023-02-01T11:36:35;7.00;99.90
17172;DHT22;8701;50.150;8.756;2023-02-01T11:40:38;7.00;99.90
17172;DHT22;8701;50.150;8.756;2023-02-01T11:44:42;7.00;99.90
17172;DHT22;8701;50.150;8.756;2023-02-01T11:48:45;7.00;99.90
17172;DHT22;8701;50.150;8.756;2023-02-01T11:53:08;7.00;99.90
17172;DHT22;8701;50.150;8.756;2023-02-01T11:57:26;7.00;99.90
17172;DHT22;8701;50.150;8.756;2023-02-01T12:01:51;7.10;99.90
17172;DHT22;8701;50.150;8.756;2023-02-01T12:05:59;7.10;99.90
17172;DHT22;8701;50.150;8.756;2023-02-01T12:10:15;7.10;99.90
17172;DHT22;8701;50.150;8.756;2023-02-01T12:14:36;7.10;99.90
17172;DHT22;8701;50.150;8.756;2023-02-01T12:19:01;7.10;99.90
17172;DHT22;8701;50.150;8.756;2023-02-01T12:23:19;7.10;99.90
17172;DHT22;8701;50.150;8.756;2023-02-01T12:27:54;7.20;99.90
17172;DHT22;8701;50.150;8.756;2023-02-01T12:32:11;7.20;99.90
17172;DHT22;8701;50.150;8.756;2023-02-01T12:36:22;7.20;99.90
17172;DHT22;8701;50.150;8.756;2023-02-01T12:40:42;7.20;99.90
17172;DHT22;8701;50.150;8.756;2023-02-01T12:44:51;7.30;99.90
17172;DHT22;8701;50.150;8.756;2023-02-01T12:49:00;7.20;99.90
17172;DHT22;8701;50.150;8.756;2023-02-01T12:53:09;7.20;99.90
17172;DHT22;8701;50.150;8.756;2023-02-01T12:57:17;7.20;99.90
17172;DHT22;8701;50.150;8.756;2023-02-01T13:01:26;7.20;99.90
17172;DHT22;8701;50.150;8.756;2023-02-01T13:05:45;7.20;99.90
17172;DHT22;8701;50.150;8.756;2023-02-01T13:09:52;7.20;99.90
17172;DHT22;8701;50.150;8.756;2023-02-01T13:14:01;7.20;99.90
17172;DHT22;8701;50.150;8.756;2023-02-01T13:18:16;7.20;99.90
17172;DHT22;8701;50.150;8.756;2023-02-01T13:22:23;7.20;99.90
17172;DHT22;8701;50.150;8.756;2023-02-01T13:26:27;7.20;99.90
17172;DHT22;8701;50.150;8.756;2023-02-01T13:36:10;7.40;99.90
17172;DHT22;8701;50.150;8.756;2023-02-01T13:40:33;7.30;99.90
17172;DHT22;8701;50.150;8.756;2023-02-01T13:44:39;7.30;99.90
17172;DHT22;8701;50.150;8.756;2023-02-01T13:48:47;7.30;99.90
17172;DHT22;8701;50.150;8.756;2023-02-01T13:52:55;7.40;99.90
17172;DHT22;8701;50.150;8.756;2023-02-01T13:56:58;7.40;99.90
17172;DHT22;8701;50.150;8.756;2023-02-01T14:06:02;7.40;99.90
17172;DHT22;8701;50.150;8.756;2023-02-01T14:14:42;7.40;99.90
17172;DHT22;8701;50.150;8.756;2023-02-01T14:19:00;7.40;99.90
17172;DHT22;8701;50.150;8.756;2023-02-01T14:23:03;7.50;99.90
17172;DHT22;8701;50.150;8.756;2023-02-01T14:27:17;7.50;99.90
17172;DHT22;8701;50.150;8.756;2023-02-01T14:31:48;7.50;99.90
17172;DHT22;8701;50.150;8.756;2023-02-01T14:36:04;7.60;99.90
17172;DHT22;8701;50.150;8.756;2023-02-01T14:40:16;7.60;99.90
17172;DHT22;8701;50.150;8.756;2023-02-01T14:44:30;7.40;99.90
17172;DHT22;8701;50.150;8.756;2023-02-01T14:48:46;7.60;99.90
17172;DHT22;8701;50.150;8.756;2023-02-01T14:52:58;7.80;99.90
17172;DHT22;8701;50.150;8.756;2023-02-01T14:57:02;7.90;99.90
17172;DHT22;8701;50.150;8.756;2023-02-01T15:01:15;8.00;99.90
17172;DHT22;8701;50.150;8.756;2023-02-01T15:05:33;8.00;99.90
17172;DHT22;8701;50.150;8.756;2023-02-01T15:09:38;8.00;99.90
17172;DHT22;8701;50.150;8.756;2023-02-01T15:13:48;8.00;99.90
17172;DHT22;8701;50.150;8.756;2023-02-01T15:17:52;8.00;99.90
17172;DHT22;8701;50.150;8.756;2023-02-01T15:22:03;8.00;99.90
17172;DHT22;8701;50.150;8.756;2023-02-01T15:26:06;8.10;99.90
17172;DHT22;8701;50.150;8.756;2023-02-01T15:30:19;8.00;99.90
17172;DHT22;8701;50.150;8.756;2023-02-01T15:34:44;8.20;99.90
17172;DHT22;8701;50.150;8.756;2023-02-01T15:38:48;8.00;99.90
17172;DHT22;8701;50.150;8.756;2023-02-01T15:43:15;8.20;99.90
17172;DHT22;8701;50.150;8.756;2023-02-01T15:47:20;7.90;99.90
17172;DHT22;8701;50.150;8.756;2023-02-01T15:51:29;7.90;99.90
17172;DHT22;8701;50.150;8.756;2023-02-01T15:55:36;7.80;99.90
17172;DHT22;8701;50.150;8.756;2023-02-01T15:59:43;7.90;99.90
17172;DHT22;8701;50.150;8.756;2023-02-01T16:03:46;7.90;99.90
17172;DHT22;8701;50.150;8.756;2023-02-01T16:07:57;7.80;99.90
17172;DHT22;8701;50.150;8.756;2023-02-01T16:12:28;7.80;99.90
17172;DHT22;8701;50.150;8.756;2023-02-01T16:16:32;7.90;99.90
17172;DHT22;8701;50.150;8.756;2023-02-01T16:20:35;7.70;99.90
17172;DHT22;8701;50.150;8.756;2023-02-01T16:24:37;7.70;99.90
17172;DHT22;8701;50.150;8.756;2023-02-01T16:28:40;7.70;99.90
17172;DHT22;8701;50.150;8.756;2023-02-01T16:32:49;7.60;99.90
17172;DHT22;8701;50.150;8.756;2023-02-01T16:36:53;7.60;99.90
17172;DHT22;8701;50.150;8.756;2023-02-01T16:40:58;7.60;99.90
17172;DHT22;8701;50.150;8.756;2023-02-01T16:45:00;7.50;99.90
17172;DHT22;8701;50.150;8.756;2023-02-01T16:49:19;7.50;99.90
17172;DHT22;8701;50.150;8.756;2023-02-01T16:53:24;7.50;99.90
17172;DHT22;8701;50.150;8.756;2023-02-01T16:57:29;7.50;99.90
17172;DHT22;8701;50.150;8.756;2023-02-01T17:01:31;7.50;99.90
17172;DHT22;8701;50.150;8.756;2023-02-01T17:05:35;7.50;99.90
17172;DHT22;8701;50.150;8.756;2023-02-01T17:09:38;7.50;99.90
17172;DHT22;8701;50.150;8.756;2023-02-01T17:13:41;7.50;99.90
17172;DHT22;8701;50.150;8.756;2023-02-01T17:17:46;7.60;99.90
17172;DHT22;8701;50.150;8.756;2023-02-01T17:21:51;7.40;99.90
17172;DHT22;8701;50.150;8.756;2023-02-01T17:25:56;7.40;99.90
17172;DHT22;8701;50.150;8.756;2023-02-01T17:29:59;7.40;99.90
17172;DHT22;8701;50.150;8.756;2023-02-01T17:34:04;7.30;99.90
17172;DHT22;8701;50.150;8.756;2023-02-01T17:38:11;7.30;99.90
17172;DHT22;8701;50.150;8.756;2023-02-01T17:42:13;7.30;99.90
17172;DHT22;8701;50.150;8.756;2023-02-01T17:46:16;7.30;99.90
17172;DHT22;8701;50.150;8.756;2023-02-01T17:50:30;7.30;99.90
17172;DHT22;8701;50.150;8.756;2023-02-01T17:54:34;7.30;99.90
17172;DHT22;8701;50.150;8.756;2023-02-01T17:58:37;7.30;99.90
17172;DHT22;8701;50.150;8.756;2023-02-01T18:02:40;7.30;99.90
17172;DHT22;8701;50.150;8.756;2023-02-01T18:06:42;7.30;99.90
17172;DHT22;8701;50.150;8.756;2023-02-01T18:10:46;7.20;99.90
17172;DHT22;8701;50.150;8.756;2023-02-01T18:14:52;7.20;99.90
17172;DHT22;8701;50.150;8.756;2023-02-01T18:18:58;7.20;99.90
17172;DHT22;8701;50.150;8.756;2023-02-01T18:23:13;7.00;99.90
17172;DHT22;8701;50.150;8.756;2023-02-01T18:27:21;7.00;99.90
17172;DHT22;8701;50.150;8.756;2023-02-01T18:31:26;7.00;99.90
17172;DHT22;8701;50.150;8.756;2023-02-01T18:35:39;7.00;99.90
17172;DHT22;8701;50.150;8.756;2023-02-01T18:39:50;6.80;99.90
17172;DHT22;8701;50.150;8.756;2023-02-01T18:59:56;6.80;99.90
17172;DHT22;8701;50.150;8.756;2023-02-01T19:04:04;6.80;99.90
17172;DHT22;8701;50.150;8.756;2023-02-01T19:08:08;6.80;99.90
17172;DHT22;8701;50.150;8.756;2023-02-01T19:12:16;6.80;99.90
17172;DHT22;8701;50.150;8.756;2023-02-01T19:16:20;6.80;99.90
17172;DHT22;8701;50.150;8.756;2023-02-01T19:20:25;7.00;99.90
17172;DHT22;8701;50.150;8.756;2023-02-01T19:24:38;6.80;99.90
17172;DHT22;8701;50.150;8.756;2023-02-01T19:28:42;6.90;99.90
17172;DHT22;8701;50.150;8.756;2023-02-01T19:32:50;6.80;99.90
17172;DHT22;8701;50.150;8.756;2023-02-01T19:36:55;6.80;99.90
17172;DHT22;8701;50.150;8.756;2023-02-01T19:40:57;6.80;99.90
17172;DHT22;8701;50.150;8.756;2023-02-01T19:44:59;6.90;99.90
17172;DHT22;8701;50.150;8.756;2023-02-01T19:49:03;6.90;99.90
17172;DHT22;8701;50.150;8.756;2023-02-01T19:53:11;6.90;99.90
17172;DHT22;8701;50.150;8.756;2023-02-01T19:57:13;6.90;99.90
17172;DHT22;8701;50.150;8.756;2023-02-01T20:01:15;7.00;99.90
17172;DHT22;8701;50.150;8.756;2023-02-01T20:05:20;7.00;99.90
17172;DHT22;8701;50.150;8.756;2023-02-01T20:09:29;7.00;99.90
17172;DHT22;8701;50.150;8.756;2023-02-01T20:13:37;7.00;99.90
17172;DHT22;8701;50.150;8.756;2023-02-01T20:17:44;7.10;99.90
17172;DHT22;8701;50.150;8.756;2023-02-01T20:21:53;7.10;99.90
17172;DHT22;8701;50.150;8.756;2023-02-01T20:26:00;7.40;99.90
17172;DHT22;8701;50.150;8.756;2023-02-01T20:30:03;7.10;99.90
17172;DHT22;8701;50.150;8.756;2023-02-01T20:34:13;7.10;99.90
17172;DHT22;8701;50.150;8.756;2023-02-01T20:38:17;7.10;99.90
17172;DHT22;8701;50.150;8.756;2023-02-01T20:42:19;7.20;99.90
17172;DHT22;8701;50.150;8.756;2023-02-01T20:46:22;7.20;99.90
17172;DHT22;8701;50.150;8.756;2023-02-01T20:50:24;7.20;99.90
17172;DHT22;8701;50.150;8.756;2023-02-01T20:54:27;7.20;99.90
17172;DHT22;8701;50.150;8.756;2023-02-01T20:58:30;7.10;99.90
17172;DHT22;8701;50.150;8.756;2023-02-01T21:02:41;7.20;99.90
17172;DHT22;8701;50.150;8.756;2023-02-01T21:06:44;7.20;99.90
17172;DHT22;8701;50.150;8.756;2023-02-01T21:10:56;7.20;99.90
17172;DHT22;8701;50.150;8.756;2023-02-01T21:15:01;7.30;99.90
17172;DHT22;8701;50.150;8.756;2023-02-01T21:19:06;7.30;99.90
17172;DHT22;8701;50.150;8.756;2023-02-01T21:23:09;7.20;99.90
17172;DHT22;8701;50.150;8.756;2023-02-01T21:27:13;7.30;99.90
17172;DHT22;8701;50.150;8.756;2023-02-01T21:31:17;7.30;99.90
17172;DHT22;8701;50.150;8.756;2023-02-01T21:35:21;7.30;99.90
17172;DHT22;8701;50.150;8.756;2023-02-01T21:39:25;7.30;99.90
17172;DHT22;8701;50.150;8.756;2023-02-01T21:43:30;7.30;99.90
17172;DHT22;8701;50.150;8.756;2023-02-01T21:47:32;7.30;99.90
17172;DHT22;8701;50.150;8.756;2023-02-01T21:51:35;7.40;99.90
17172;DHT22;8701;50.150;8.756;2023-02-01T21:55:37;7.30;99.90
17172;DHT22;8701;50.150;8.756;2023-02-01T21:59:52;7.30;99.90
17172;DHT22;8701;50.150;8.756;2023-02-01T22:03:54;7.40;99.90
17172;DHT22;8701;50.150;8.756;2023-02-01T22:07:56;7.40;99.90
17172;DHT22;8701;50.150;8.756;2023-02-01T22:12:16;7.40;99.90
17172;DHT22;8701;50.150;8.756;2023-02-01T22:16:21;7.40;99.90
17172;DHT22;8701;50.150;8.756;2023-02-01T22:20:27;7.40;99.90
17172;DHT22;8701;50.150;8.756;2023-02-01T22:24:41;7.60;99.90
17172;DHT22;8701;50.150;8.756;2023-02-01T22:28:48;7.50;99.90
17172;DHT22;8701;50.150;8.756;2023-02-01T22:32:54;7.40;99.90
17172;DHT22;8701;50.150;8.756;2023-02-01T22:37:09;7.40;99.90
17172;DHT22;8701;50.150;8.756;2023-02-01T22:41:12;7.40;99.90
17172;DHT22;8701;50.150;8.756;2023-02-01T22:45:30;7.40;99.90
17172;DHT22;8701;50.150;8.756;2023-02-01T22:49:50;7.40;99.90
17172;DHT22;8701;50.150;8.756;2023-02-01T22:53:56;7.40;99.90
17172;DHT22;8701;50.150;8.756;2023-02-01T22:57:59;7.40;99.90
17172;DHT22;8701;50.150;8.756;2023-02-01T23:02:02;7.40;99.90
17172;DHT22;8701;50.150;8.756;2023-02-01T23:06:07;7.40;99.90
17172;DHT22;8701;50.150;8.756;2023-02-01T23:10:10;7.40;99.90
17172;DHT22;8701;50.150;8.756;2023-02-01T23:14:15;7.30;99.90
17172;DHT22;8701;50.150;8.756;2023-02-01T23:18:19;7.30;99.90
17172;DHT22;8701;50.150;8.756;2023-02-01T23:22:32;7.40;99.90
17172;DHT22;8701;50.150;8.756;2023-02-01T23:26:48;7.40;99.90
17172;DHT22;8701;50.150;8.756;2023-02-01T23:30:50;7.40;99.90
17172;DHT22;8701;50.150;8.756;2023-02-01T23:34:52;7.40;99.90
17172;DHT22;8701;50.150;8.756;2023-02-01T23:38:56;7.40;99.90
17172;DHT22;8701;50.150;8.756;2023-02-01T23:42:58;7.40;99.90
17172;DHT22;8701;50.150;8.756;2023-02-01T23:47:18;7.40;99.90
17172;DHT22;8701;50.150;8.756;2023-02-01T23:51:21;7.30;99.90
17172;DHT22;8701;50.150;8.756;2023-02-01T23:55:25;7.30;99.90
17172;DHT22;8701;50.150;8.756;2023-02-01T23:59:28;7.40;99.90
